Time;durP1;ratioP1;P1;durP2;ratioP2;P2;SDS_P1;SDS_P2;PMS_P1;PMS_P2;Temp;Humidity;BMP_temperature;BMP_pressure;BME280_temperature;BME280_humidity;BME280_pressure;Samples;Min_cycle;Max_cycle;Signal;HPM_P1;HPM_P2
2024/02/23 00:02:14;;;;;;;13.10;5.20;;;14.30;96.70;;;;;;4894869;29;20112;-68
2024/02/23 00:04:47;;;;;;;13.75;4.10;;;14.40;96.70;;;;;;4925588;29;20695;-68
2024/02/23 00:07:17;;;;;;;17.60;7.65;;;14.40;96.70;;;;;;4894820;29;20056;-68
2024/02/23 00:09:47;;;;;;;11.57;4.75;;;14.40;96.70;;;;;;4911669;29;20051;-68
2024/02/23 00:12:18;;;;;;;7.85;3.15;;;14.40;96.70;;;;;;4895682;29;20116;-68
2024/02/23 00:14:47;;;;;;;10.73;3.40;;;14.40;96.70;;;;;;4919816;29;20052;-68
2024/02/23 00:17:20;;;;;;;7.68;2.90;;;14.40;96.70;;;;;;4895660;29;21036;-68
2024/02/23 00:19:49;;;;;;;8.57;2.67;;;14.40;96.70;;;;;;4910363;29;20056;-68
2024/02/23 00:22:19;;;;;;;12.52;4.70;;;14.40;96.70;;;;;;4912759;29;20512;-68
2024/02/23 00:24:48;;;;;;;16.55;3.50;;;14.40;96.70;;;;;;4913189;29;20082;-68
2024/02/23 00:27:20;;;;;;;8.63;2.95;;;14.40;96.70;;;;;;4910117;29;20454;-68
2024/02/23 00:29:49;;;;;;;9.40;3.22;;;14.40;96.70;;;;;;4900010;29;20103;-68
2024/02/23 00:32:18;;;;;;;8.05;3.28;;;14.40;96.70;;;;;;4922129;29;20493;-68
2024/02/23 00:34:46;;;;;;;9.55;3.65;;;14.40;96.70;;;;;;4907506;29;20058;-68
2024/02/23 00:37:18;;;;;;;9.50;3.20;;;14.40;96.70;;;;;;4910746;29;20048;-68
2024/02/23 00:39:47;;;;;;;11.70;2.83;;;14.40;96.70;;;;;;4910087;29;20481;-68
2024/02/23 00:42:20;;;;;;;6.18;2.15;;;14.40;96.70;;;;;;4895304;29;20171;-68
2024/02/23 00:44:49;;;;;;;9.30;2.80;;;14.40;96.70;;;;;;4910903;29;20056;-68
2024/02/23 00:47:18;;;;;;;7.55;2.65;;;14.40;96.70;;;;;;4910810;29;20052;-68
2024/02/23 00:49:47;;;;;;;8.95;2.83;;;14.40;96.70;;;;;;4895978;29;20146;-67
2024/02/23 00:52:16;;;;;;;8.48;2.90;;;14.40;96.70;;;;;;4929299;29;20138;-67
2024/02/23 00:54:46;;;;;;;7.30;2.30;;;14.40;96.70;;;;;;4893913;29;20048;-67
2024/02/23 00:57:14;;;;;;;7.93;2.25;;;14.40;96.70;;;;;;4910306;29;20083;-67
2024/02/23 00:59:44;;;;;;;5.68;2.35;;;14.40;96.70;;;;;;4912143;29;20164;-68
2024/02/23 01:02:14;;;;;;;10.05;2.85;;;14.40;96.70;;;;;;4910220;29;20056;-67
2024/02/23 01:04:45;;;;;;;8.90;2.72;;;14.40;96.70;;;;;;4911829;29;20048;-67
2024/02/23 01:07:13;;;;;;;9.27;2.95;;;14.40;96.70;;;;;;4893229;29;20083;-68
2024/02/23 01:09:42;;;;;;;11.73;2.83;;;14.40;96.70;;;;;;4910377;29;20052;-68
2024/02/23 01:12:11;;;;;;;7.63;2.70;;;14.30;96.70;;;;;;4910544;29;20083;-68
2024/02/23 01:14:41;;;;;;;8.43;2.60;;;14.30;96.70;;;;;;4909407;29;20147;-68
2024/02/23 01:17:11;;;;;;;7.32;2.30;;;14.30;96.70;;;;;;4909682;29;20052;-68
2024/02/23 01:19:42;;;;;;;12.32;4.07;;;14.30;96.70;;;;;;4908948;29;20094;-67
2024/02/23 01:22:14;;;;;;;8.02;2.38;;;14.30;96.70;;;;;;4918597;29;20047;-68
2024/02/23 01:24:43;;;;;;;8.27;2.80;;;14.30;96.70;;;;;;4910481;29;20107;-67
2024/02/23 01:27:12;;;;;;;10.88;2.88;;;14.30;96.70;;;;;;4892103;29;20044;-68
2024/02/23 01:29:41;;;;;;;11.88;3.10;;;14.30;96.70;;;;;;4893951;29;20063;-67
2024/02/23 01:32:11;;;;;;;5.82;2.28;;;14.30;96.70;;;;;;4917162;29;20055;-68
2024/02/23 01:34:39;;;;;;;6.82;2.00;;;14.30;96.70;;;;;;4897618;29;20504;-68
2024/02/23 01:37:08;;;;;;;7.40;2.60;;;14.30;96.70;;;;;;4924436;29;20429;-68
2024/02/23 01:39:39;;;;;;;7.90;3.28;;;14.30;96.70;;;;;;4924865;29;20063;-68
2024/02/23 01:42:09;;;;;;;8.05;2.65;;;14.30;96.70;;;;;;4913304;29;20048;-68
2024/02/23 01:44:37;;;;;;;11.10;3.00;;;14.30;96.70;;;;;;4893638;29;20062;-68
2024/02/23 01:47:08;;;;;;;7.93;2.53;;;14.20;96.70;;;;;;4908458;29;20055;-68
2024/02/23 01:49:39;;;;;;;10.68;2.80;;;14.20;96.70;;;;;;4893783;29;20127;-68
2024/02/23 01:52:08;;;;;;;7.45;2.47;;;14.20;96.70;;;;;;4925932;29;20467;-68
2024/02/23 01:54:39;;;;;;;12.82;2.80;;;14.20;96.70;;;;;;4917955;29;20054;-68
2024/02/23 01:57:09;;;;;;;8.50;2.70;;;14.20;96.70;;;;;;4895408;29;20055;-68
2024/02/23 01:59:57;;;;;;;10.63;3.00;;;14.20;96.70;;;;;;4918185;29;20040;-68
2024/02/23 02:02:29;;;;;;;6.63;2.28;;;14.30;96.70;;;;;;4911223;29;20052;-68
2024/02/23 02:05:03;;;;;;;10.93;2.78;;;14.30;96.70;;;;;;4908339;29;21196;-68
2024/02/23 02:07:34;;;;;;;8.20;2.40;;;14.30;96.70;;;;;;4893737;29;20051;-68
2024/02/23 02:10:06;;;;;;;8.05;2.53;;;14.30;96.70;;;;;;4908587;29;20071;-68
2024/02/23 02:12:35;;;;;;;12.35;2.67;;;14.30;96.70;;;;;;4908477;29;20565;-68
2024/02/23 02:15:06;;;;;;;10.32;2.92;;;14.30;96.70;;;;;;4931732;29;20055;-68
2024/02/23 02:17:35;;;;;;;8.20;2.97;;;14.30;96.70;;;;;;4912567;29;20111;-68
2024/02/23 02:20:12;;;;;;;9.48;2.50;;;14.30;96.70;;;;;;4911294;29;20127;-68
2024/02/23 02:22:41;;;;;;;11.10;3.17;;;14.30;96.70;;;;;;4907092;29;20108;-68
2024/02/23 02:25:12;;;;;;;11.55;3.42;;;14.30;96.70;;;;;;4909943;29;20643;-68
2024/02/23 02:27:45;;;;;;;10.02;2.97;;;14.30;96.70;;;;;;4912707;29;20083;-68
2024/02/23 02:30:14;;;;;;;10.60;3.28;;;14.30;96.70;;;;;;4919123;29;20087;-68
2024/02/23 02:32:43;;;;;;;14.20;3.05;;;14.40;96.70;;;;;;4909510;29;20056;-68
2024/02/23 02:35:15;;;;;;;9.63;3.53;;;14.40;96.70;;;;;;4902284;29;20122;-68
2024/02/23 02:37:46;;;;;;;12.77;3.30;;;14.40;96.70;;;;;;4906773;29;20060;-68
2024/02/23 02:40:17;;;;;;;10.38;3.15;;;14.40;96.70;;;;;;4892870;29;20120;-68
2024/02/23 02:42:45;;;;;;;9.35;2.83;;;14.40;96.70;;;;;;4908129;29;20052;-68
2024/02/23 02:45:14;;;;;;;7.70;2.67;;;14.40;96.70;;;;;;4929929;29;20614;-68
2024/02/23 02:47:46;;;;;;;8.02;2.72;;;14.40;96.70;;;;;;4888078;29;20412;-68
2024/02/23 02:50:16;;;;;;;10.98;2.97;;;14.40;96.70;;;;;;4884677;29;20066;-68
2024/02/23 02:52:47;;;;;;;7.40;2.88;;;14.40;96.70;;;;;;4909775;29;20170;-68
2024/02/23 02:55:17;;;;;;;8.45;2.72;;;14.40;96.70;;;;;;4897440;29;20075;-68
2024/02/23 02:57:47;;;;;;;11.68;2.85;;;14.40;96.70;;;;;;4922648;29;20561;-68
2024/02/23 03:00:17;;;;;;;9.63;2.67;;;14.40;96.70;;;;;;4906678;29;20048;-68
2024/02/23 03:02:46;;;;;;;10.30;2.75;;;14.40;96.70;;;;;;4892695;29;20086;-68
2024/02/23 03:05:20;;;;;;;10.50;2.88;;;14.40;96.70;;;;;;4892981;29;20067;-68
2024/02/23 03:07:49;;;;;;;6.90;2.58;;;14.40;96.70;;;;;;4909681;29;20052;-68
2024/02/23 03:10:19;;;;;;;16.15;2.72;;;14.50;96.70;;;;;;4894813;29;20070;-68
2024/02/23 03:12:47;;;;;;;10.68;2.95;;;14.40;96.70;;;;;;4897924;29;20047;-68
2024/02/23 03:15:20;;;;;;;7.35;3.20;;;14.40;96.70;;;;;;4914380;29;21179;-68
2024/02/23 03:17:48;;;;;;;12.13;2.92;;;14.40;96.70;;;;;;4904913;29;20044;-68
2024/02/23 03:20:19;;;;;;;12.80;3.00;;;14.40;96.70;;;;;;4899576;29;20048;-68
2024/02/23 03:22:50;;;;;;;9.98;2.70;;;14.40;96.70;;;;;;4915241;29;20516;-68
2024/02/23 03:25:20;;;;;;;9.27;2.88;;;14.40;96.70;;;;;;4911191;29;20517;-68
2024/02/23 03:27:49;;;;;;;8.48;2.70;;;14.40;96.70;;;;;;4916852;29;20116;-68
2024/02/23 03:30:21;;;;;;;15.05;3.40;;;14.40;96.70;;;;;;4899724;29;20398;-68
2024/02/23 03:32:49;;;;;;;8.25;2.65;;;14.40;96.70;;;;;;4903563;29;20058;-68
2024/02/23 03:35:19;;;;;;;10.60;3.38;;;14.40;96.70;;;;;;4909668;29;20045;-69
2024/02/23 03:37:47;;;;;;;6.28;2.67;;;14.40;96.70;;;;;;4927063;29;20096;-68
2024/02/23 03:40:18;;;;;;;8.30;3.13;;;14.40;96.70;;;;;;4911854;29;20742;-68
2024/02/23 03:42:47;;;;;;;9.02;2.88;;;14.40;96.70;;;;;;4915827;29;20482;-68
2024/02/23 03:45:17;;;;;;;10.70;3.17;;;14.40;96.70;;;;;;4906416;29;20048;-69
2024/02/23 03:47:46;;;;;;;7.15;2.72;;;14.50;96.70;;;;;;4911046;29;20044;-68
2024/02/23 03:50:17;;;;;;;8.20;2.30;;;14.50;96.70;;;;;;4901754;29;20533;-68
2024/02/23 03:52:47;;;;;;;10.80;2.58;;;14.50;96.70;;;;;;4912612;29;20083;-69
2024/02/23 03:55:17;;;;;;;8.82;2.40;;;14.40;96.70;;;;;;4919176;29;20409;-68
2024/02/23 03:57:47;;;;;;;11.05;2.90;;;14.50;96.70;;;;;;4894304;29;20044;-68
2024/02/23 04:00:20;;;;;;;9.68;3.22;;;14.50;96.70;;;;;;4910100;29;20058;-68
2024/02/23 04:02:49;;;;;;;6.85;2.50;;;14.50;96.70;;;;;;4918786;29;20139;-68
2024/02/23 04:05:20;;;;;;;5.78;2.53;;;14.50;96.70;;;;;;4913948;29;20043;-68
2024/02/23 04:07:52;;;;;;;10.05;2.65;;;14.50;96.70;;;;;;4910822;29;20075;-68
2024/02/23 04:10:21;;;;;;;7.70;2.60;;;14.50;96.70;;;;;;4916138;29;20078;-68
2024/02/23 04:12:51;;;;;;;4.57;2.10;;;14.50;96.70;;;;;;4900570;29;20135;-68
2024/02/23 04:15:19;;;;;;;8.77;2.72;;;14.40;96.70;;;;;;4912918;29;20171;-68
2024/02/23 04:17:48;;;;;;;9.15;2.90;;;14.40;96.70;;;;;;4902164;29;20673;-68
2024/02/23 04:20:18;;;;;;;10.95;3.55;;;14.40;96.70;;;;;;4915231;29;20052;-68
2024/02/23 04:22:47;;;;;;;11.88;3.20;;;14.40;96.70;;;;;;4917753;29;20540;-68
2024/02/23 04:25:18;;;;;;;10.55;2.78;;;14.50;96.70;;;;;;4910384;29;20128;-68
2024/02/23 04:27:46;;;;;;;9.38;3.00;;;14.50;96.70;;;;;;4898951;29;20052;-68
2024/02/23 04:30:18;;;;;;;9.30;2.80;;;14.50;96.70;;;;;;4910538;29;20413;-68
2024/02/23 04:32:48;;;;;;;11.63;3.10;;;14.50;96.70;;;;;;4914654;29;20048;-68
2024/02/23 04:35:17;;;;;;;12.50;2.83;;;14.50;96.70;;;;;;4894512;29;20552;-68
2024/02/23 04:37:50;;;;;;;11.02;2.90;;;14.50;96.70;;;;;;4909836;29;20147;-68
2024/02/23 04:40:21;;;;;;;7.88;2.40;;;14.60;96.70;;;;;;4907137;29;20481;-67
2024/02/23 04:42:49;;;;;;;10.20;2.80;;;14.60;96.70;;;;;;4920381;29;20672;-67
2024/02/23 04:45:19;;;;;;;8.88;3.15;;;14.60;96.70;;;;;;4916773;29;20040;-67
2024/02/23 04:47:48;;;;;;;12.43;2.60;;;14.60;96.70;;;;;;4898922;29;20092;-68
2024/02/23 04:50:20;;;;;;;10.43;3.00;;;14.60;96.70;;;;;;4908878;29;20055;-67
2024/02/23 04:52:50;;;;;;;8.65;2.60;;;14.60;96.70;;;;;;4900683;29;20060;-67
2024/02/23 04:55:22;;;;;;;8.60;2.72;;;14.70;96.70;;;;;;4911669;29;20056;-67
2024/02/23 04:57:51;;;;;;;6.10;2.00;;;14.60;96.70;;;;;;4910123;29;20044;-67
2024/02/23 05:00:21;;;;;;;6.47;2.25;;;14.60;96.70;;;;;;4918616;29;20103;-67
2024/02/23 05:02:51;;;;;;;8.25;2.20;;;14.60;96.70;;;;;;4909162;29;20052;-66
2024/02/23 05:05:22;;;;;;;6.88;2.30;;;14.70;96.70;;;;;;4919795;29;20102;-67
2024/02/23 05:07:54;;;;;;;8.60;2.45;;;14.60;96.70;;;;;;4911175;29;20075;-67
2024/02/23 05:10:24;;;;;;;8.13;3.08;;;14.70;96.70;;;;;;4913401;29;20396;-67
2024/02/23 05:12:53;;;;;;;8.20;2.50;;;14.70;96.70;;;;;;4895201;29;20156;-67
2024/02/23 05:15:22;;;;;;;6.38;2.20;;;14.70;96.70;;;;;;4909967;29;20470;-67
2024/02/23 05:17:51;;;;;;;8.05;2.47;;;14.70;96.70;;;;;;4915297;29;20060;-67
2024/02/23 05:20:22;;;;;;;5.80;2.35;;;14.70;96.70;;;;;;4895243;29;20052;-68
2024/02/23 05:22:52;;;;;;;10.75;2.85;;;14.70;96.70;;;;;;4913265;29;20063;-67
2024/02/23 05:25:21;;;;;;;6.75;2.65;;;14.70;96.70;;;;;;4922986;29;20507;-67
2024/02/23 05:27:53;;;;;;;8.40;2.30;;;14.80;96.70;;;;;;4919511;29;20056;-68
2024/02/23 05:30:22;;;;;;;8.25;2.50;;;14.80;96.70;;;;;;4909782;29;20051;-68
2024/02/23 05:32:52;;;;;;;7.93;2.42;;;14.80;96.70;;;;;;4900557;29;20119;-67
2024/02/23 05:35:23;;;;;;;8.50;2.80;;;14.80;96.70;;;;;;4908798;29;20051;-67
2024/02/23 05:37:52;;;;;;;6.65;2.00;;;14.80;96.70;;;;;;4909794;29;20056;-67
2024/02/23 05:40:21;;;;;;;7.97;2.92;;;14.80;96.70;;;;;;4893748;29;20135;-67
2024/02/23 05:42:54;;;;;;;11.02;3.25;;;14.80;96.70;;;;;;4914088;29;20102;-67
2024/02/23 05:45:23;;;;;;;6.40;2.42;;;14.80;96.70;;;;;;4913726;29;20068;-67
2024/02/23 05:47:52;;;;;;;6.95;2.42;;;14.80;96.70;;;;;;4894396;29;20047;-67
2024/02/23 05:50:20;;;;;;;6.50;2.55;;;14.80;96.70;;;;;;4908123;29;20058;-68
2024/02/23 05:52:53;;;;;;;6.72;2.42;;;14.80;96.70;;;;;;4911069;29;20056;-67
2024/02/23 05:55:21;;;;;;;6.32;2.50;;;14.80;96.70;;;;;;4918876;29;20055;-67
2024/02/23 05:57:55;;;;;;;9.13;3.22;;;14.80;96.70;;;;;;4897440;29;20050;-67
2024/02/23 06:00:23;;;;;;;6.13;2.70;;;14.80;96.70;;;;;;4901468;29;20064;-67
2024/02/23 06:02:54;;;;;;;7.05;2.70;;;14.80;96.70;;;;;;4913286;29;20047;-67
2024/02/23 06:05:40;;;;;;;;;;;14.80;96.70;;;;;;4908048;29;20048;-67
2024/02/23 06:08:11;;;;;;;7.22;2.63;;;14.80;96.70;;;;;;4915439;29;19934;-67
2024/02/23 06:10:42;;;;;;;8.52;2.97;;;14.80;96.70;;;;;;4921749;29;20462;-67
2024/02/23 06:13:12;;;;;;;10.52;3.05;;;14.80;96.70;;;;;;4901191;29;20174;-67
2024/02/23 06:15:42;;;;;;;7.82;3.20;;;14.80;96.70;;;;;;4912669;29;20086;-67
2024/02/23 06:18:10;;;;;;;8.13;2.53;;;14.80;96.70;;;;;;4891104;29;20044;-67
2024/02/23 06:20:42;;;;;;;10.68;3.47;;;14.80;96.70;;;;;;4924255;29;20054;-67
2024/02/23 06:23:13;;;;;;;10.05;3.25;;;14.80;96.70;;;;;;4897581;29;20111;-67
2024/02/23 06:25:42;;;;;;;9.02;3.08;;;14.80;96.70;;;;;;4886249;29;20115;-67
2024/02/23 06:28:16;;;;;;;8.23;2.80;;;14.80;96.70;;;;;;4909061;29;20416;-67
2024/02/23 06:30:44;;;;;;;8.45;3.42;;;14.70;96.70;;;;;;4905482;29;20062;-67
2024/02/23 06:33:16;;;;;;;9.50;3.13;;;14.70;96.70;;;;;;4924029;29;20469;-67
2024/02/23 06:35:46;;;;;;;9.55;3.58;;;14.70;96.70;;;;;;4913030;29;20501;-67
2024/02/23 06:38:16;;;;;;;11.32;3.60;;;14.70;96.70;;;;;;4909406;29;20044;-67
2024/02/23 06:40:45;;;;;;;9.52;3.22;;;14.70;96.70;;;;;;4914345;29;20517;-67
2024/02/23 06:43:21;;;;;;;11.77;4.10;;;14.70;96.70;;;;;;4914812;29;20052;-67
2024/02/23 06:45:50;;;;;;;10.70;3.50;;;14.70;96.70;;;;;;4912852;29;20074;-67
2024/02/23 06:48:21;;;;;;;9.35;3.22;;;14.80;96.70;;;;;;4912663;29;20052;-67
2024/02/23 06:50:52;;;;;;;8.10;3.40;;;14.80;96.70;;;;;;4917736;29;20130;-67
2024/02/23 06:53:22;;;;;;;9.55;3.22;;;14.80;96.70;;;;;;4916696;29;20047;-68
2024/02/23 06:55:54;;;;;;;12.82;3.47;;;14.80;96.70;;;;;;4920125;29;20054;-68
2024/02/23 06:58:26;;;;;;;8.02;2.92;;;14.80;96.70;;;;;;4904640;29;20083;-68
2024/02/23 07:00:55;;;;;;;8.30;3.30;;;14.80;96.70;;;;;;4899680;29;20063;-68
2024/02/23 07:03:24;;;;;;;9.63;3.30;;;14.80;96.70;;;;;;4927270;29;20072;-68
2024/02/23 07:05:53;;;;;;;12.02;3.20;;;14.80;96.70;;;;;;4917332;29;20040;-68
2024/02/23 07:08:22;;;;;;;9.68;3.25;;;14.90;96.70;;;;;;4921334;29;20048;-68
2024/02/23 07:10:51;;;;;;;10.27;3.33;;;14.90;96.70;;;;;;4911395;29;20048;-68
2024/02/23 07:13:21;;;;;;;14.32;4.10;;;14.90;96.70;;;;;;4897478;29;20075;-67
2024/02/23 07:15:53;;;;;;;11.23;2.97;;;14.90;96.70;;;;;;4908353;29;20056;-67
2024/02/23 07:18:23;;;;;;;10.88;3.05;;;14.90;96.70;;;;;;4918052;29;20112;-67
2024/02/23 07:20:52;;;;;;;9.90;3.42;;;15.00;96.70;;;;;;4918992;29;20044;-67
2024/02/23 07:23:22;;;;;;;13.82;3.20;;;15.00;96.70;;;;;;4935677;29;20058;-67
2024/02/23 07:25:52;;;;;;;9.50;2.72;;;15.10;96.70;;;;;;4911858;29;20469;-67
2024/02/23 07:28:23;;;;;;;10.35;2.97;;;15.10;96.70;;;;;;4909001;29;20054;-67
2024/02/23 07:30:54;;;;;;;12.60;3.35;;;15.20;96.70;;;;;;4926685;29;20053;-68
2024/02/23 07:33:24;;;;;;;12.13;3.15;;;15.30;96.70;;;;;;4920263;29;20158;-67
2024/02/23 07:35:54;;;;;;;10.30;4.10;;;15.30;96.70;;;;;;4910704;29;20228;-68
2024/02/23 07:38:25;;;;;;;11.18;3.08;;;15.30;96.70;;;;;;4917799;29;20158;-68
2024/02/23 07:40:55;;;;;;;14.23;4.00;;;15.30;96.70;;;;;;4911314;29;20194;-67
2024/02/23 07:43:26;;;;;;;11.57;3.20;;;15.30;96.70;;;;;;4911913;29;20139;-67
2024/02/23 07:45:56;;;;;;;15.02;3.70;;;15.30;96.70;;;;;;4926723;29;20587;-68
2024/02/23 07:48:27;;;;;;;10.27;4.15;;;15.40;96.70;;;;;;4926989;29;20056;-67
2024/02/23 07:50:56;;;;;;;17.08;6.95;;;15.40;96.70;;;;;;4912393;29;20070;-68
2024/02/23 07:53:25;;;;;;;17.65;7.57;;;15.40;96.70;;;;;;4896952;29;20497;-68
2024/02/23 07:55:53;;;;;;;19.23;10.00;;;15.40;96.70;;;;;;4905811;29;20054;-67
2024/02/23 07:58:25;;;;;;;13.93;4.40;;;15.40;96.70;;;;;;4928906;29;20115;-67
2024/02/23 08:00:56;;;;;;;13.27;4.80;;;15.40;96.70;;;;;;4916210;29;20151;-67
2024/02/23 08:03:26;;;;;;;12.13;3.50;;;15.40;96.70;;;;;;4911676;29;20725;-67
2024/02/23 08:05:56;;;;;;;11.18;3.75;;;15.40;96.70;;;;;;4916887;29;20048;-67
2024/02/23 08:08:32;;;;;;;13.88;5.20;;;15.40;96.70;;;;;;4910907;29;20064;-67
2024/02/23 08:11:02;;;;;;;16.55;6.35;;;15.30;96.70;;;;;;4911849;29;20051;-68
2024/02/23 08:13:32;;;;;;;14.85;4.40;;;15.30;96.70;;;;;;4924131;29;20138;-68
2024/02/23 08:16:04;;;;;;;13.63;4.30;;;15.30;96.70;;;;;;4904020;29;20143;-68
2024/02/23 08:18:36;;;;;;;13.52;5.90;;;15.30;96.70;;;;;;4907444;29;20062;-68
2024/02/23 08:21:08;;;;;;;12.00;3.95;;;15.40;96.70;;;;;;4897626;29;20047;-68
2024/02/23 08:23:38;;;;;;;12.73;5.53;;;15.50;96.70;;;;;;4886614;29;20063;-68
2024/02/23 08:26:09;;;;;;;17.25;4.00;;;15.40;96.70;;;;;;4910582;29;20048;-68
2024/02/23 08:28:39;;;;;;;15.77;4.25;;;15.40;96.70;;;;;;4898417;29;20505;-68
2024/02/23 08:31:09;;;;;;;11.68;3.97;;;15.50;96.70;;;;;;4919773;29;20111;-68
2024/02/23 08:33:38;;;;;;;13.77;3.75;;;15.60;96.70;;;;;;4894945;29;20052;-68
2024/02/23 08:36:10;;;;;;;15.63;6.65;;;15.60;96.70;;;;;;4910533;29;20044;-68
2024/02/23 08:38:39;;;;;;;16.08;6.82;;;15.70;96.70;;;;;;4911161;29;20162;-68
2024/02/23 08:41:09;;;;;;;10.15;3.92;;;15.70;96.70;;;;;;4909999;29;20147;-68
2024/02/23 08:43:41;;;;;;;13.95;5.20;;;15.70;96.70;;;;;;4912058;29;20154;-68
2024/02/23 08:46:12;;;;;;;12.50;4.15;;;15.70;96.70;;;;;;4902107;29;20081;-67
2024/02/23 08:48:42;;;;;;;11.52;3.92;;;15.60;96.70;;;;;;4930179;29;20056;-67
2024/02/23 08:51:11;;;;;;;15.30;4.82;;;15.60;96.70;;;;;;4897413;29;20048;-68
2024/02/23 08:53:39;;;;;;;15.55;5.20;;;15.60;96.70;;;;;;4916896;29;20084;-67
2024/02/23 08:56:11;;;;;;;14.95;4.05;;;15.60;96.70;;;;;;4908660;29;20103;-67
2024/02/23 08:58:40;;;;;;;10.15;4.72;;;15.60;96.70;;;;;;4907808;29;20052;-67
2024/02/23 09:01:13;;;;;;;16.90;5.07;;;15.60;96.70;;;;;;4895212;29;20050;-67
2024/02/23 09:03:42;;;;;;;16.08;5.97;;;15.60;96.70;;;;;;4913943;29;20135;-67
2024/02/23 09:06:11;;;;;;;14.90;5.38;;;15.60;96.70;;;;;;4922454;29;20036;-67
2024/02/23 09:08:41;;;;;;;9.82;4.15;;;15.60;96.70;;;;;;4908894;29;20059;-67
2024/02/23 09:11:13;;;;;;;11.95;4.07;;;15.60;96.70;;;;;;4895152;29;20051;-67
2024/02/23 09:13:43;;;;;;;14.43;3.35;;;15.60;96.70;;;;;;4909062;29;20142;-67
2024/02/23 09:16:14;;;;;;;10.75;2.92;;;15.60;96.70;;;;;;4916332;29;20083;-66
2024/02/23 09:18:44;;;;;;;10.25;3.40;;;15.60;96.70;;;;;;4914136;29;20052;-67
2024/02/23 09:21:13;;;;;;;12.55;4.00;;;15.60;96.70;;;;;;4895936;29;20684;-67
2024/02/23 09:23:42;;;;;;;11.93;3.60;;;15.60;96.70;;;;;;4909524;29;20056;-67
2024/02/23 09:26:13;;;;;;;11.32;3.63;;;15.60;96.70;;;;;;4920021;29;20075;-67
2024/02/23 09:28:42;;;;;;;11.18;4.00;;;15.60;96.70;;;;;;4923714;29;20055;-67
2024/02/23 09:31:13;;;;;;;10.57;3.83;;;15.60;96.70;;;;;;4909949;29;20086;-68
2024/02/23 09:33:48;;;;;;;11.35;4.22;;;15.60;96.70;;;;;;4923814;29;20154;-68
2024/02/23 09:36:18;;;;;;;12.13;3.17;;;15.70;96.70;;;;;;4908641;29;20044;-67
2024/02/23 09:38:48;;;;;;;7.45;2.92;;;15.70;96.70;;;;;;4908945;29;20048;-68
2024/02/23 09:41:21;;;;;;;11.57;4.72;;;15.70;96.70;;;;;;4916217;29;20529;-67
2024/02/23 09:43:52;;;;;;;12.60;4.35;;;15.70;96.70;;;;;;4912718;29;20055;-67
2024/02/23 09:46:22;;;;;;;10.18;3.45;;;15.70;96.70;;;;;;4916708;29;20048;-67
2024/02/23 09:48:55;;;;;;;11.30;3.83;;;15.70;96.70;;;;;;4918801;29;20072;-67
2024/02/23 09:51:25;;;;;;;18.15;4.78;;;15.70;96.70;;;;;;4921834;29;20421;-66
2024/02/23 09:53:57;;;;;;;12.32;4.78;;;15.70;96.70;;;;;;4909050;29;20067;-67
2024/02/23 09:56:30;;;;;;;9.40;3.35;;;15.70;96.70;;;;;;4908570;29;20076;-68
2024/02/23 09:59:01;;;;;;;11.50;4.38;;;15.70;96.70;;;;;;4923853;29;20051;-68
2024/02/23 10:01:32;;;;;;;10.95;3.83;;;15.70;96.70;;;;;;4892693;29;20056;-67
2024/02/23 10:04:06;;;;;;;12.27;3.80;;;15.70;96.70;;;;;;4908435;29;20424;-68
2024/02/23 10:06:34;;;;;;;18.15;4.25;;;15.80;96.70;;;;;;4912523;29;20127;-67
2024/02/23 10:09:04;;;;;;;11.20;3.55;;;15.80;96.70;;;;;;4914758;29;20926;-67
2024/02/23 10:11:34;;;;;;;11.48;3.15;;;15.90;96.70;;;;;;4910938;29;20488;-68
2024/02/23 10:14:05;;;;;;;8.25;2.53;;;16.00;96.70;;;;;;4912224;29;20048;-68
2024/02/23 10:16:34;;;;;;;10.55;3.70;;;16.10;96.70;;;;;;4919843;29;20056;-67
2024/02/23 10:19:06;;;;;;;13.55;4.63;;;16.20;96.70;;;;;;4918652;29;20167;-67
2024/02/23 10:21:35;;;;;;;12.15;4.95;;;16.30;96.70;;;;;;4922551;29;20394;-68
2024/02/23 10:24:10;;;;;;;11.05;3.70;;;16.30;96.70;;;;;;4919596;29;20052;-67
2024/02/23 10:26:40;;;;;;;10.52;4.78;;;16.30;96.70;;;;;;4912916;29;20572;-68
2024/02/23 10:29:09;;;;;;;16.02;5.70;;;16.30;96.70;;;;;;4917729;29;20139;-68
2024/02/23 10:31:42;;;;;;;12.82;4.25;;;16.30;96.70;;;;;;4910557;29;20060;-69
2024/02/23 10:34:14;;;;;;;8.65;3.25;;;16.30;96.70;;;;;;4933586;29;20056;-68
2024/02/23 10:36:45;;;;;;;10.07;3.75;;;16.20;96.70;;;;;;4896868;29;20139;-68
2024/02/23 10:39:20;;;;;;;10.15;3.33;;;16.20;96.70;;;;;;4912487;29;20064;-68
2024/02/23 10:41:58;;;;;;;10.85;4.38;;;16.10;96.70;;;;;;4912231;29;20087;-69
2024/02/23 10:44:30;;;;;;;7.43;2.58;;;16.10;96.70;;;;;;4896648;29;20056;-69
2024/02/23 10:47:02;;;;;;;6.18;1.50;;;16.00;96.70;;;;;;4899500;29;20509;-67
2024/02/23 10:49:35;;;;;;;8.50;1.80;;;15.50;96.70;;;;;;4911662;29;20059;-69
2024/02/23 10:52:06;;;;;;;8.60;1.83;;;14.40;96.70;;;;;;4920371;29;20131;-68
2024/02/23 10:54:36;;;;;;;5.65;1.15;;;13.60;96.70;;;;;;4914193;29;20068;-68
2024/02/23 10:57:07;;;;;;;6.50;1.52;;;13.10;96.70;;;;;;4911778;29;20497;-69
2024/02/23 10:59:39;;;;;;;5.78;1.15;;;12.80;96.70;;;;;;4906193;29;20056;-69
2024/02/23 11:02:17;;;;;;;5.50;1.15;;;12.60;96.70;;;;;;4902179;29;20170;-69
2024/02/23 11:04:51;;;;;;;5.18;1.02;;;12.50;96.70;;;;;;4896041;29;20056;-68
2024/02/23 11:07:25;;;;;;;6.03;1.10;;;12.40;96.70;;;;;;4922131;29;20394;-68
2024/02/23 11:09:56;;;;;;;6.00;1.15;;;12.30;96.70;;;;;;4921956;29;20135;-69
2024/02/23 11:12:26;;;;;;;5.45;1.13;;;12.20;96.70;;;;;;4909401;29;20061;-68
2024/02/23 11:14:59;;;;;;;5.22;1.00;;;12.20;96.70;;;;;;4911814;29;20067;-68
2024/02/23 11:17:32;;;;;;;6.43;1.30;;;12.10;96.70;;;;;;4927714;29;20139;-68
2024/02/23 11:20:09;;;;;;;5.30;1.25;;;12.10;96.70;;;;;;4911881;29;20052;-68
2024/02/23 11:22:38;;;;;;;7.15;1.67;;;12.10;96.70;;;;;;4912074;29;20074;-68
2024/02/23 11:25:09;;;;;;;6.45;0.63;;;12.00;96.70;;;;;;4927965;29;20513;-68
2024/02/23 11:27:43;;;;;;;3.55;0.73;;;12.00;96.70;;;;;;4911795;29;20131;-68
2024/02/23 11:30:18;;;;;;;3.78;0.60;;;11.90;96.70;;;;;;4915292;29;20056;-67
2024/02/23 11:32:54;;;;;;;2.30;0.57;;;11.70;96.70;;;;;;4912213;29;20510;-67
2024/02/23 11:35:28;;;;;;;5.32;1.02;;;11.60;96.70;;;;;;4920465;29;20094;-69
2024/02/23 11:38:04;;;;;;;4.18;0.75;;;11.50;96.70;;;;;;4911217;29;20139;-69
2024/02/23 11:40:33;;;;;;;6.65;1.25;;;11.40;96.70;;;;;;4924524;29;20092;-69
2024/02/23 11:43:04;;;;;;;3.83;0.88;;;11.40;96.70;;;;;;4896287;29;20437;-69
2024/02/23 11:45:35;;;;;;;4.25;0.88;;;11.40;96.70;;;;;;4926868;29;20576;-69
2024/02/23 11:48:07;;;;;;;6.22;1.00;;;11.40;96.70;;;;;;4912960;29;20075;-69
2024/02/23 11:50:38;;;;;;;4.97;1.02;;;11.40;96.70;;;;;;4911018;29;20115;-69
2024/02/23 11:53:09;;;;;;;3.38;0.98;;;11.40;96.70;;;;;;4927167;29;20066;-69
2024/02/23 11:55:39;;;;;;;3.03;1.00;;;11.50;96.70;;;;;;4912129;29;20064;-69
2024/02/23 11:58:10;;;;;;;5.85;1.33;;;11.50;96.70;;;;;;4926775;29;20052;-69
2024/02/23 12:00:46;;;;;;;5.70;1.45;;;11.60;96.70;;;;;;4910245;29;20064;-69
2024/02/23 12:03:16;;;;;;;4.55;1.55;;;11.60;96.70;;;;;;4895099;29;20056;-69
2024/02/23 12:05:52;;;;;;;4.40;0.88;;;11.60;96.70;;;;;;4904493;29;20139;-69
2024/02/23 12:08:23;;;;;;;6.93;1.50;;;11.60;96.70;;;;;;4926253;29;20066;-69
2024/02/23 12:10:54;;;;;;;4.28;1.02;;;11.60;96.70;;;;;;4912286;29;20055;-69
2024/02/23 12:13:23;;;;;;;4.18;0.85;;;11.60;96.70;;;;;;4895394;29;20147;-69
2024/02/23 12:15:55;;;;;;;5.13;0.93;;;11.60;96.70;;;;;;4910760;29;20044;-69
2024/02/23 12:18:29;;;;;;;3.67;0.75;;;11.50;96.70;;;;;;4911665;29;20142;-68
2024/02/23 12:21:09;;;;;;;4.97;1.00;;;11.50;96.70;;;;;;4925719;29;20056;-69
2024/02/23 12:23:42;;;;;;;4.97;1.13;;;11.50;96.70;;;;;;4909861;29;20086;-69
2024/02/23 12:26:16;;;;;;;7.80;1.85;;;11.40;96.70;;;;;;4910444;29;20102;-69
2024/02/23 12:28:46;;;;;;;9.18;2.63;;;11.50;96.70;;;;;;4895445;29;20043;-69
2024/02/23 12:31:17;;;;;;;4.30;1.52;;;11.40;96.70;;;;;;4902093;29;20458;-69
2024/02/23 12:33:47;;;;;;;3.28;1.33;;;11.40;96.70;;;;;;4910282;29;20414;-69
2024/02/23 12:36:20;;;;;;;4.72;1.73;;;11.40;96.70;;;;;;4894937;29;20066;-69
2024/02/23 12:38:55;;;;;;;6.32;1.83;;;11.40;96.70;;;;;;4912546;29;20052;-69
2024/02/23 12:41:24;;;;;;;8.77;2.63;;;11.40;96.70;;;;;;4913376;29;20059;-69
2024/02/23 12:43:53;;;;;;;7.38;2.70;;;11.40;96.70;;;;;;4910323;29;20230;-69
2024/02/23 12:46:23;;;;;;;5.07;2.25;;;11.40;96.70;;;;;;4908635;29;20047;-69
2024/02/23 12:48:52;;;;;;;6.95;1.85;;;11.40;96.70;;;;;;4924867;29;20099;-69
2024/02/23 12:51:26;;;;;;;5.25;1.60;;;11.40;96.70;;;;;;4894088;29;20056;-69
2024/02/23 12:53:55;;;;;;;5.88;1.58;;;11.50;96.70;;;;;;4910657;29;20063;-69
2024/02/23 12:56:25;;;;;;;4.93;1.17;;;11.60;96.70;;;;;;4913288;29;20395;-69
2024/02/23 12:58:56;;;;;;;3.60;1.25;;;11.60;96.70;;;;;;4924191;29;20056;-69
2024/02/23 13:01:25;;;;;;;4.03;1.13;;;11.70;96.70;;;;;;4925492;29;20056;-69